Time;durP1;ratioP1;P1;durP2;ratioP2;P2;SDS_P1;SDS_P2;PMS_P1;PMS_P2;Temp;Humidity;BMP_temperature;BMP_pressure;BME280_temperature;BME280_humidity;BME280_pressure;Samples;Min_cycle;Max_cycle;Signal;HPM_P1;HPM_P2
2023/12/18 00:01:43;;;;;;;38.00;34.80;;;4.50;83.10;;;;;;12603575;28;20028;-76
2023/12/18 00:07:45;;;;;;;51.88;48.35;;;4.50;83.10;;;;;;12569446;28;20456;-76
2023/12/18 00:13:46;;;;;;;30.70;28.15;;;4.50;83.20;;;;;;12585677;28;20142;-76
2023/12/18 00:19:48;;;;;;;60.17;56.58;;;4.50;83.20;;;;;;12603246;28;20041;-76
2023/12/18 00:25:49;;;;;;;55.65;51.42;;;4.50;83.20;;;;;;12603063;28;20033;-76
2023/12/18 00:31:51;;;;;;;46.75;42.80;;;4.50;83.30;;;;;;12585886;28;20040;-76
2023/12/18 00:37:52;;;;;;;40.55;37.33;;;4.50;83.30;;;;;;12602790;28;20024;-77
2023/12/18 00:43:54;;;;;;;39.45;36.83;;;4.40;83.30;;;;;;12602569;28;20036;-76
2023/12/18 00:49:55;;;;;;;43.92;40.95;;;4.20;83.30;;;;;;12584390;28;20040;-77
2023/12/18 00:55:58;;;;;;;40.25;37.30;;;4.20;83.40;;;;;;12602224;28;20032;-76
2023/12/18 01:01:59;;;;;;;37.95;35.13;;;4.20;83.40;;;;;;12609546;28;20329;-76
2023/12/18 01:08:01;;;;;;;52.65;49.55;;;4.20;83.50;;;;;;12610839;28;20043;-76
2023/12/18 01:14:02;;;;;;;29.70;27.45;;;4.20;83.40;;;;;;12576124;28;20032;-76
2023/12/18 01:20:06;;;;;;;36.28;33.60;;;4.20;83.50;;;;;;12610348;28;20446;-76
2023/12/18 01:26:07;;;;;;;44.33;41.47;;;4.20;83.50;;;;;;12592262;28;20035;-76
2023/12/18 01:32:09;;;;;;;49.22;45.95;;;4.20;83.60;;;;;;12592303;28;20055;-76
2023/12/18 01:38:10;;;;;;;50.40;47.42;;;4.20;83.60;;;;;;12592272;28;20044;-76
2023/12/18 01:44:12;;;;;;;30.63;28.27;;;4.20;83.60;;;;;;12609259;28;20028;-76
2023/12/18 01:50:14;;;;;;;49.05;46.13;;;4.20;83.60;;;;;;12574675;28;20036;-77
2023/12/18 01:56:18;;;;;;;52.35;49.08;;;4.10;83.70;;;;;;12590779;28;20028;-76
2023/12/18 02:02:19;;;;;;;47.22;44.35;;;4.20;83.80;;;;;;12608402;28;20032;-76
2023/12/18 02:08:22;;;;;;;53.05;49.85;;;4.20;83.70;;;;;;12608676;28;20421;-77
2023/12/18 02:14:23;;;;;;;49.38;46.40;;;4.20;83.60;;;;;;12607007;28;20361;-73
2023/12/18 02:20:25;;;;;;;37.38;34.70;;;4.10;83.60;;;;;;12607494;28;20037;-73
2023/12/18 02:26:26;;;;;;;36.08;33.35;;;4.00;83.70;;;;;;12589460;28;20033;-73
2023/12/18 02:32:28;;;;;;;39.47;36.60;;;4.00;83.80;;;;;;12606803;28;20028;-74
2023/12/18 02:38:30;;;;;;;35.60;33.20;;;4.10;83.70;;;;;;12588813;28;20047;-73
2023/12/18 02:44:31;;;;;;;42.45;39.53;;;4.10;83.60;;;;;;12606307;28;20029;-74
2023/12/18 02:50:33;;;;;;;43.58;40.47;;;4.00;83.70;;;;;;12605963;28;20032;-74
2023/12/18 02:56:34;;;;;;;44.88;42.03;;;4.10;84.10;;;;;;12605629;28;20024;-74
2023/12/18 03:02:38;;;;;;;54.88;51.38;;;4.30;83.80;;;;;;12587593;28;20036;-73
2023/12/18 03:08:40;;;;;;;40.55;37.60;;;4.40;83.80;;;;;;12605094;28;20037;-73
2023/12/18 03:14:41;;;;;;;57.35;53.22;;;4.60;83.60;;;;;;12605649;28;20433;-73
2023/12/18 03:20:43;;;;;;;72.55;67.22;;;4.60;83.50;;;;;;12586583;28;20051;-73
2023/12/18 03:26:44;;;;;;;63.20;58.53;;;4.60;83.20;;;;;;12604594;28;20033;-73
2023/12/18 03:32:46;;;;;;;67.80;63.22;;;4.70;83.10;;;;;;12604343;28;20322;-73
2023/12/18 03:38:47;;;;;;;79.05;74.25;;;4.80;83.00;;;;;;12586414;28;20025;-73
2023/12/18 03:44:49;;;;;;;31.27;28.70;;;4.90;82.70;;;;;;12604040;28;20043;-73
2023/12/18 03:50:50;;;;;;;74.88;70.35;;;4.90;82.80;;;;;;12603815;28;20032;-73
2023/12/18 03:56:52;;;;;;;89.35;84.35;;;5.00;82.60;;;;;;12603839;28;20037;-73
2023/12/18 04:02:54;;;;;;;79.68;74.95;;;5.00;82.40;;;;;;12585917;28;20029;-73
2023/12/18 04:08:55;;;;;;;54.22;49.88;;;5.10;82.40;;;;;;12569244;28;20044;-73
2023/12/18 04:14:57;;;;;;;92.03;86.57;;;5.20;82.20;;;;;;12603364;28;20024;-73
2023/12/18 04:20:58;;;;;;;106.88;100.95;;;5.20;81.90;;;;;;12603238;28;20032;-73
2023/12/18 04:27:00;;;;;;;118.53;112.32;;;5.30;81.90;;;;;;12585086;28;20445;-73
2023/12/18 04:33:02;;;;;;;88.18;83.38;;;5.20;81.50;;;;;;12605048;28;20040;-74
2023/12/18 04:39:03;;;;;;;86.35;81.57;;;5.00;82.50;;;;;;12612300;28;20028;-74
2023/12/18 04:45:05;;;;;;;61.22;57.67;;;4.80;82.20;;;;;;12611948;28;20033;-73
2023/12/18 04:51:07;;;;;;;61.80;58.20;;;4.60;82.50;;;;;;12611643;28;20460;-74
2023/12/18 04:57:08;;;;;;;24.25;22.08;;;4.50;82.90;;;;;;12593690;28;20056;-74
2023/12/18 05:03:10;;;;;;;41.25;37.83;;;4.70;82.80;;;;;;12593372;28;20357;-74
2023/12/18 05:09:12;;;;;;;67.10;63.03;;;4.80;82.70;;;;;;12592962;28;20045;-74
2023/12/18 05:15:14;;;;;;;30.73;28.05;;;5.10;82.70;;;;;;12610502;28;20020;-73
2023/12/18 05:21:16;;;;;;;48.00;44.92;;;5.20;82.20;;;;;;12610304;28;20353;-73
2023/12/18 05:27:20;;;;;;;76.53;72.03;;;5.20;82.20;;;;;;12610030;28;20357;-74
2023/12/18 05:33:21;;;;;;;75.78;71.45;;;5.40;82.00;;;;;;12609743;28;20037;-74
2023/12/18 05:39:23;;;;;;;76.30;72.00;;;5.50;81.50;;;;;;12609541;28;20047;-74
2023/12/18 05:45:25;;;;;;;65.63;61.90;;;4.90;81.50;;;;;;12609046;28;20036;-74
2023/12/18 05:51:27;;;;;;;56.97;53.30;;;4.70;82.40;;;;;;12608969;28;20039;-74
2023/12/18 05:57:28;;;;;;;38.08;34.20;;;5.10;82.20;;;;;;12608648;28;20033;-73
2023/12/18 06:03:30;;;;;;;83.97;78.82;;;5.20;81.60;;;;;;12608362;28;20588;-74
2023/12/18 06:09:31;;;;;;;67.90;63.88;;;5.30;81.50;;;;;;12607979;28;20037;-74
2023/12/18 06:15:33;;;;;;;80.25;75.40;;;5.20;81.20;;;;;;12607812;28;20036;-74
2023/12/18 06:21:42;;;;;;;84.25;79.45;;;5.40;81.40;;;;;;12607503;28;20036;-74
2023/12/18 06:27:47;;;;;;;27.17;24.57;;;5.00;81.10;;;;;;12607207;28;20032;-74
2023/12/18 06:34:04;;;;;;;42.10;39.10;;;4.40;81.80;;;;;;12606702;28;20032;-74
2023/12/18 06:40:06;;;;;;;45.10;41.92;;;4.20;82.50;;;;;;12606555;28;20043;-74
2023/12/18 06:46:12;;;;;;;35.55;32.95;;;4.50;82.60;;;;;;12587599;28;20040;-73
2023/12/18 06:52:14;;;;;;;55.35;51.42;;;4.20;82.30;;;;;;12571214;28;20048;-73
2023/12/18 06:58:18;;;;;;;46.78;43.47;;;4.40;82.90;;;;;;12575176;23;20053;-73
2023/12/18 07:04:21;;;;;;;53.72;49.78;;;4.80;82.50;;;;;;12570994;28;20036;-73
2023/12/18 07:10:24;;;;;;;72.65;68.40;;;4.90;82.40;;;;;;12601686;28;20137;-73
2023/12/18 07:16:26;;;;;;;54.92;50.92;;;5.00;82.10;;;;;;12584837;28;20024;-73
2023/12/18 07:22:29;;;;;;;37.65;34.15;;;5.10;82.10;;;;;;12604622;28;20036;-73
2023/12/18 07:28:31;;;;;;;31.88;28.67;;;4.80;81.70;;;;;;12604424;28;20032;-73
2023/12/18 07:34:33;;;;;;;49.60;46.17;;;4.50;82.60;;;;;;12604275;28;20032;-73
2023/12/18 07:40:37;;;;;;;57.35;53.55;;;4.80;82.70;;;;;;12604129;28;20032;-73
2023/12/18 07:46:43;;;;;;;32.92;29.75;;;4.80;82.80;;;;;;12604012;28;20033;-73
2023/12/18 07:52:45;;;;;;;49.25;45.88;;;5.10;82.70;;;;;;12603888;28;20020;-73
2023/12/18 07:58:47;;;;;;;42.10;38.72;;;5.30;82.70;;;;;;12603651;28;20035;-73
2023/12/18 08:04:48;;;;;;;78.55;73.63;;;5.50;82.30;;;;;;12603684;28;20025;-73
2023/12/18 08:10:50;;;;;;;42.42;39.10;;;5.30;82.00;;;;;;12609825;28;20036;-73
2023/12/18 08:16:52;;;;;;;57.08;53.38;;;5.40;82.50;;;;;;12613428;28;20025;-73
2023/12/18 08:22:54;;;;;;;87.55;82.18;;;5.10;82.40;;;;;;12595288;28;20468;-73
2023/12/18 08:28:57;;;;;;;86.57;81.85;;;5.00;83.10;;;;;;12612850;28;20028;-73
2023/12/18 08:35:00;;;;;;;62.95;59.13;;;5.10;83.30;;;;;;12612436;28;20032;-72
2023/12/18 08:41:02;;;;;;;67.80;64.20;;;5.20;83.30;;;;;;12613013;28;20028;-72
2023/12/18 08:47:04;;;;;;;64.13;60.03;;;5.00;83.20;;;;;;12595455;28;20037;-72
2023/12/18 08:53:06;;;;;;;27.38;24.60;;;4.90;83.40;;;;;;12593601;28;20040;-72
2023/12/18 08:59:08;;;;;;;56.67;52.38;;;4.70;83.70;;;;;;12593573;28;20032;-72
2023/12/18 09:05:09;;;;;;;67.43;62.88;;;4.70;84.10;;;;;;12611166;28;20033;-76
2023/12/18 09:11:11;;;;;;;86.57;80.75;;;4.80;83.80;;;;;;12611393;28;20021;-76
2023/12/18 09:17:12;;;;;;;61.45;57.05;;;4.90;84.10;;;;;;12592699;28;20028;-76
2023/12/18 09:23:15;;;;;;;38.30;34.60;;;5.20;84.20;;;;;;12609636;28;20029;-75
2023/12/18 09:29:17;;;;;;;80.03;74.75;;;5.20;84.10;;;;;;12609983;28;20315;-76
2023/12/18 09:35:24;;;;;;;82.90;77.50;;;5.20;84.50;;;;;;12609815;28;20033;-76
2023/12/18 09:41:26;;;;;;;92.45;85.75;;;5.20;84.50;;;;;;12609534;28;20039;-76
2023/12/18 09:47:28;;;;;;;73.13;68.45;;;5.30;84.70;;;;;;12591218;28;20049;-75
2023/12/18 09:53:30;;;;;;;37.05;33.67;;;5.40;85.10;;;;;;12591145;28;20047;-75
2023/12/18 09:59:32;;;;;;;85.80;81.15;;;5.80;85.10;;;;;;12608616;28;20051;-73
2023/12/18 10:05:34;;;;;;;71.68;67.22;;;6.00;85.00;;;;;;12590601;28;20024;-72
2023/12/18 10:11:35;;;;;;;35.47;32.67;;;6.20;85.20;;;;;;12607986;28;20036;-72
2023/12/18 10:17:44;;;;;;;50.25;46.25;;;6.40;84.90;;;;;;12608166;28;20031;-72
2023/12/18 10:23:47;;;;;;;92.28;87.43;;;6.50;85.30;;;;;;12589666;28;20033;-73
2023/12/18 10:29:49;;;;;;;97.00;92.00;;;6.50;85.00;;;;;;12588550;28;20033;-73
2023/12/18 10:35:53;;;;;;;100.22;95.13;;;6.50;85.30;;;;;;12589290;28;20033;-72
2023/12/18 10:42:03;;;;;;;97.60;92.28;;;6.70;85.40;;;;;;12606441;28;20460;-72
2023/12/18 10:48:07;;;;;;;131.02;124.20;;;6.80;85.50;;;;;;12606380;28;20034;-73
2023/12/18 10:54:10;;;;;;;182.10;173.18;;;7.20;85.50;;;;;;12605860;28;20047;-72
2023/12/18 11:00:14;;;;;;;152.52;144.98;;;7.30;85.00;;;;;;12587837;28;20430;-72
2023/12/18 11:06:17;;;;;;;148.93;141.35;;;7.60;84.70;;;;;;12605349;28;20037;-72
2023/12/18 11:12:20;;;;;;;84.43;79.15;;;7.90;84.60;;;;;;12605027;28;20036;-72
2023/12/18 11:18:47;;;;;;;101.53;95.20;;;7.90;84.20;;;;;;12604630;28;20025;-72
2023/12/18 11:24:49;;;;;;;71.95;67.38;;;8.10;84.10;;;;;;12586967;28;20035;-72
2023/12/18 11:30:51;;;;;;;44.72;41.00;;;8.20;84.20;;;;;;12586730;28;20036;-72
2023/12/18 11:36:52;;;;;;;33.95;30.85;;;8.40;83.90;;;;;;12586284;28;20042;-72
2023/12/18 11:42:55;;;;;;;28.55;25.80;;;8.60;83.50;;;;;;12604024;28;20028;-72
2023/12/18 11:49:01;;;;;;;29.30;25.13;;;8.60;83.20;;;;;;12604101;28;20040;-72
2023/12/18 11:55:03;;;;;;;28.52;24.90;;;8.70;83.10;;;;;;12603654;28;20044;-73
2023/12/18 12:01:05;;;;;;;22.73;20.38;;;8.80;83.10;;;;;;12600584;28;20037;-73
2023/12/18 12:07:07;;;;;;;29.23;26.02;;;8.80;82.80;;;;;;12632829;28;20028;-72
2023/12/18 12:13:20;;;;;;;24.85;21.02;;;8.90;83.00;;;;;;12653341;28;20428;-73
2023/12/18 12:19:32;;;;;;;23.42;19.90;;;9.00;82.60;;;;;;12607016;28;20036;-73
2023/12/18 12:25:34;;;;;;;31.55;22.00;;;9.10;82.90;;;;;;12553520;28;20033;-72
2023/12/18 12:31:35;;;;;;;27.38;24.33;;;9.20;82.70;;;;;;12552045;28;20349;-70
2023/12/18 12:37:37;;;;;;;23.35;19.92;;;9.30;82.10;;;;;;12535956;28;20037;-72
2023/12/18 12:43:39;;;;;;;23.48;20.05;;;9.30;82.20;;;;;;12553015;28;20037;-72
2023/12/18 12:50:04;;;;;;;28.25;20.42;;;9.40;82.10;;;;;;12552690;28;20032;-73
2023/12/18 12:56:07;;;;;;;27.38;21.73;;;9.50;81.20;;;;;;12557279;28;20036;-72
2023/12/18 13:02:09;;;;;;;27.48;21.10;;;9.60;80.90;;;;;;12561623;28;20036;-69
2023/12/18 13:08:12;;;;;;;22.73;20.25;;;9.60;81.00;;;;;;12561480;28;20040;-72
2023/12/18 13:14:14;;;;;;;22.95;20.58;;;9.70;80.70;;;;;;12561074;28;20036;-70
2023/12/18 13:20:20;;;;;;;32.35;28.30;;;9.70;80.80;;;;;;12560916;28;20033;-72
2023/12/18 13:26:22;;;;;;;17.13;15.38;;;9.80;81.00;;;;;;12560455;28;20044;-70
2023/12/18 13:32:25;;;;;;;16.95;15.15;;;9.90;81.10;;;;;;12560301;28;20449;-71
2023/12/18 13:38:44;;;;;;;22.25;16.90;;;10.00;81.20;;;;;;12558942;28;20033;-70
2023/12/18 13:44:46;;;;;;;18.77;16.00;;;10.10;81.20;;;;;;12542018;28;20373;-70
2023/12/18 13:50:50;;;;;;;25.92;20.15;;;10.20;81.00;;;;;;12559418;28;20271;-70
2023/12/18 13:56:52;;;;;;;23.65;15.32;;;10.30;80.80;;;;;;12559308;28;20037;-70
2023/12/18 14:02:54;;;;;;;15.88;13.05;;;10.30;80.90;;;;;;12558894;28;20029;-72
2023/12/18 14:08:55;;;;;;;17.08;13.75;;;10.40;81.00;;;;;;12558452;28;20029;-72
2023/12/18 14:14:57;;;;;;;15.95;11.68;;;10.20;81.40;;;;;;12558301;28;20029;-72
2023/12/18 14:20:59;;;;;;;14.90;13.10;;;10.20;81.60;;;;;;12558776;28;20025;-72
2023/12/18 14:27:00;;;;;;;13.77;11.75;;;10.60;82.00;;;;;;12539934;28;20040;-72
2023/12/18 14:33:02;;;;;;;16.13;13.27;;;11.20;81.60;;;;;;12522788;28;20048;-72
2023/12/18 14:39:04;;;;;;;18.10;15.98;;;11.70;81.50;;;;;;12555914;28;20036;-70
2023/12/18 14:45:08;;;;;;;20.40;17.27;;;11.70;81.50;;;;;;12556877;28;20029;-71
2023/12/18 14:51:10;;;;;;;21.27;14.88;;;11.40;82.30;;;;;;12556512;28;20035;-71
2023/12/18 14:57:11;;;;;;;20.58;17.80;;;11.20;82.90;;;;;;12584589;23;20052;-71
2023/12/18 15:03:13;;;;;;;19.65;16.42;;;11.00;83.20;;;;;;12605534;28;20040;-74
2023/12/18 15:09:18;;;;;;;23.58;18.35;;;10.80;83.50;;;;;;12605406;28;20028;-74
2023/12/18 15:15:20;;;;;;;25.90;20.33;;;10.70;83.80;;;;;;12587294;28;20047;-74
2023/12/18 15:21:23;;;;;;;20.55;18.35;;;10.60;84.00;;;;;;12570487;28;20059;-74
2023/12/18 15:27:24;;;;;;;25.27;20.15;;;10.60;84.10;;;;;;12604736;28;20040;-74
2023/12/18 15:33:26;;;;;;;23.60;21.13;;;10.50;84.00;;;;;;12586633;28;20029;-74
2023/12/18 15:39:28;;;;;;;25.35;19.98;;;10.50;84.00;;;;;;12604389;28;20029;-74
2023/12/18 15:45:30;;;;;;;22.77;20.38;;;10.40;84.00;;;;;;12604155;28;20029;-74
2023/12/18 15:51:33;;;;;;;26.35;23.13;;;10.30;83.80;;;;;;12553432;28;20044;-74
2023/12/18 15:57:35;;;;;;;31.15;25.85;;;10.20;83.70;;;;;;12585906;28;20039;-74
2023/12/18 16:03:37;;;;;;;36.30;27.45;;;10.10;83.70;;;;;;12585902;28;20360;-74
2023/12/18 16:09:38;;;;;;;42.33;31.27;;;10.00;83.70;;;;;;12603621;28;20028;-74
2023/12/18 16:15:41;;;;;;;47.40;38.17;;;9.70;83.70;;;;;;12603916;28;20043;-71
2023/12/18 16:21:44;;;;;;;43.55;37.40;;;9.60;84.00;;;;;;12603351;28;20028;-70
2023/12/18 16:27:46;;;;;;;48.75;44.20;;;9.40;83.80;;;;;;12585402;28;20036;-71
2023/12/18 16:33:48;;;;;;;58.53;53.55;;;9.10;84.40;;;;;;12595245;28;20036;-71
2023/12/18 16:39:50;;;;;;;58.20;53.42;;;9.10;84.80;;;;;;12612499;28;20033;-71
2023/12/18 16:45:51;;;;;;;99.55;92.90;;;9.10;84.60;;;;;;12612189;28;20032;-71
2023/12/18 16:51:53;;;;;;;84.72;78.68;;;9.00;84.60;;;;;;12594192;28;20048;-71
2023/12/18 16:57:54;;;;;;;84.10;76.65;;;9.00;85.00;;;;;;12611512;28;20032;-71
2023/12/18 17:03:56;;;;;;;67.82;61.20;;;9.20;84.80;;;;;;12611357;28;20036;-71
2023/12/18 17:09:57;;;;;;;69.15;62.72;;;9.20;84.10;;;;;;12593349;28;20035;-71
2023/12/18 17:15:59;;;;;;;63.72;57.90;;;9.30;83.80;;;;;;12576876;28;20051;-71
2023/12/18 17:22:01;;;;;;;65.00;59.53;;;9.20;83.60;;;;;;12592714;28;20025;-71
2023/12/18 17:28:04;;;;;;;81.60;75.20;;;9.20;83.60;;;;;;12611714;28;20440;-71
2023/12/18 17:34:07;;;;;;;104.25;97.60;;;9.20;83.40;;;;;;12609948;28;20361;-73
2023/12/18 17:40:08;;;;;;;58.92;53.40;;;9.20;83.10;;;;;;12591482;28;20334;-75
2023/12/18 17:46:11;;;;;;;96.22;90.22;;;9.20;82.90;;;;;;12609742;28;20028;-75
2023/12/18 17:52:12;;;;;;;57.63;51.67;;;9.20;83.00;;;;;;12609975;28;20044;-74
2023/12/18 17:58:14;;;;;;;89.07;83.57;;;9.20;82.70;;;;;;12592083;28;20025;-76
2023/12/18 18:04:16;;;;;;;95.78;89.05;;;9.00;82.60;;;;;;12590712;28;20040;-76
2023/12/18 18:10:18;;;;;;;138.30;130.15;;;8.80;82.80;;;;;;12608354;28;20063;-76
2023/12/18 18:16:20;;;;;;;176.70;166.32;;;8.80;82.70;;;;;;12608090;28;20029;-76
2023/12/18 18:22:21;;;;;;;183.32;172.32;;;8.80;82.40;;;;;;12589954;28;20036;-76
2023/12/18 18:28:25;;;;;;;126.00;118.10;;;8.80;82.40;;;;;;12589745;28;20033;-77
2023/12/18 18:34:31;;;;;;;202.95;191.27;;;8.80;82.20;;;;;;12589254;28;20048;-76
2023/12/18 18:40:35;;;;;;;214.65;203.05;;;8.70;82.20;;;;;;12589663;28;20368;-76
2023/12/18 18:46:37;;;;;;;236.88;223.45;;;8.60;82.30;;;;;;12588663;28;20039;-76
2023/12/18 18:52:39;;;;;;;241.07;228.57;;;8.50;82.30;;;;;;12587745;28;20048;-77
2023/12/18 18:58:42;;;;;;;217.38;205.88;;;8.60;82.30;;;;;;12605930;28;20031;-76
2023/12/18 19:04:44;;;;;;;203.13;191.93;;;8.40;82.20;;;;;;12571996;28;20051;-76
2023/12/18 19:10:45;;;;;;;140.75;131.77;;;8.30;82.60;;;;;;12605109;28;20035;-76
2023/12/18 19:16:47;;;;;;;191.00;180.35;;;8.20;82.70;;;;;;12570836;28;20055;-76
2023/12/18 19:22:49;;;;;;;161.07;151.27;;;8.10;82.60;;;;;;12587098;28;20052;-76
2023/12/18 19:28:52;;;;;;;121.15;113.05;;;8.20;82.60;;;;;;12604718;28;20036;-76
2023/12/18 19:34:55;;;;;;;145.60;136.60;;;8.20;82.40;;;;;;12586368;28;20044;-76
2023/12/18 19:40:57;;;;;;;185.13;174.77;;;8.10;82.40;;;;;;12604269;28;20062;-76
2023/12/18 19:46:58;;;;;;;184.13;174.23;;;8.00;82.30;;;;;;12604137;28;20033;-76
2023/12/18 19:53:00;;;;;;;179.02;168.43;;;8.10;82.20;;;;;;12586022;28;20437;-76
2023/12/18 19:59:02;;;;;;;192.35;182.05;;;8.10;82.10;;;;;;12603781;28;20037;-76
2023/12/18 20:05:05;;;;;;;197.70;187.40;;;8.10;82.00;;;;;;12594361;28;20055;-76
2023/12/18 20:11:27;;;;;;;191.93;180.70;;;7.90;82.40;;;;;;12620045;28;20032;-76
2023/12/18 20:17:32;;;;;;;146.45;137.55;;;7.90;82.50;;;;;;12619911;28;20025;-76
2023/12/18 20:23:34;;;;;;;174.50;164.95;;;7.90;82.50;;;;;;12585558;28;20357;-76
2023/12/18 20:29:35;;;;;;;157.18;148.30;;;7.90;82.50;;;;;;12619195;28;20033;-75
2023/12/18 20:35:38;;;;;;;101.57;94.68;;;7.80;82.50;;;;;;12602291;28;20033;-76
2023/12/18 20:41:43;;;;;;;163.70;154.18;;;7.80;82.40;;;;;;12602341;28;20484;-76
2023/12/18 20:47:47;;;;;;;94.85;88.60;;;7.60;82.50;;;;;;12601237;28;20032;-76
2023/12/18 20:53:49;;;;;;;72.18;65.57;;;7.50;82.70;;;;;;12619800;28;20047;-76
2023/12/18 20:59:51;;;;;;;107.10;100.95;;;7.50;82.80;;;;;;12585353;28;20051;-76
2023/12/18 21:05:52;;;;;;;103.43;95.70;;;7.40;83.00;;;;;;12619406;28;20033;-76
2023/12/18 21:12:23;;;;;;;52.35;47.88;;;7.10;83.20;;;;;;12619247;28;20024;-76
2023/12/18 21:18:25;;;;;;;85.93;80.13;;;7.00;83.60;;;;;;12611328;28;20032;-76
2023/12/18 21:24:26;;;;;;;46.33;41.38;;;7.00;83.70;;;;;;12610562;28;20036;-76
2023/12/18 21:30:28;;;;;;;48.88;44.08;;;7.00;83.90;;;;;;12592494;28;20452;-76
2023/12/18 21:36:30;;;;;;;51.70;42.92;;;7.10;83.70;;;;;;12609947;28;20051;-76
2023/12/18 21:42:31;;;;;;;54.40;47.50;;;7.00;83.80;;;;;;12575614;28;20048;-76
2023/12/18 21:48:33;;;;;;;50.35;44.97;;;7.00;84.00;;;;;;12610138;28;20050;-76
2023/12/18 21:54:35;;;;;;;49.15;44.40;;;7.10;83.80;;;;;;12608939;28;20098;-76
2023/12/18 22:00:36;;;;;;;49.33;44.55;;;7.20;83.90;;;;;;12608955;28;20031;-76
2023/12/18 22:06:38;;;;;;;58.40;52.28;;;7.20;83.70;;;;;;12608649;28;20032;-76
2023/12/18 22:12:40;;;;;;;61.75;55.95;;;7.20;83.70;;;;;;12608212;28;20031;-76
2023/12/18 22:18:42;;;;;;;102.32;95.28;;;7.20;83.40;;;;;;12607963;28;20032;-76
2023/12/18 22:24:44;;;;;;;72.95;67.47;;;7.20;83.30;;;;;;12608405;28;20029;-76
2023/12/18 22:30:46;;;;;;;62.03;56.35;;;7.10;83.40;;;;;;12606147;28;20039;-76
2023/12/18 22:36:48;;;;;;;100.15;92.78;;;7.10;83.50;;;;;;12589330;28;20025;-76
2023/12/18 22:42:49;;;;;;;49.90;44.78;;;7.20;83.60;;;;;;12589054;28;20032;-76
2023/12/18 22:48:51;;;;;;;54.83;48.55;;;7.10;83.20;;;;;;12588843;28;20051;-76
2023/12/18 22:54:53;;;;;;;54.45;49.60;;;7.00;83.30;;;;;;12612067;22;20055;-76
2023/12/18 23:00:55;;;;;;;49.80;44.53;;;6.90;83.10;;;;;;12571572;28;20028;-76
2023/12/18 23:06:57;;;;;;;47.05;42.47;;;6.90;83.10;;;;;;12605678;28;20024;-76
2023/12/18 23:12:59;;;;;;;47.95;41.15;;;6.90;83.10;;;;;;12605328;28;20039;-76
2023/12/18 23:19:01;;;;;;;80.18;74.40;;;6.70;83.00;;;;;;12587073;28;20453;-76
2023/12/18 23:25:03;;;;;;;43.72;38.47;;;6.70;83.20;;;;;;12604924;28;20460;-76
2023/12/18 23:31:05;;;;;;;41.53;37.35;;;6.60;83.20;;;;;;12604744;28;20028;-73
2023/12/18 23:37:06;;;;;;;49.05;44.67;;;6.70;83.20;;;;;;12604147;28;20441;-73
2023/12/18 23:43:08;;;;;;;45.60;41.85;;;6.70;83.00;;;;;;12586521;28;20445;-73
2023/12/18 23:49:10;;;;;;;35.25;31.40;;;6.70;82.80;;;;;;12604156;28;20040;-73
2023/12/18 23:55:12;;;;;;;38.03;33.95;;;6.60;82.80;;;;;;12586153;28;20044;-73
